createdAt,value
2023-01-26T02:07:02.859Z,28.00
2023-01-26T02:17:49.025Z,28.10
2023-01-26T03:13:43.714Z,28.40
2023-01-26T03:16:20.788Z,28.50
2023-01-26T03:19:13.096Z,28.40
2023-01-26T03:22:07.679Z,28.30
2023-01-26T03:24:58.708Z,28.40
2023-01-26T03:27:35.680Z,28.30
2023-01-26T03:30:14.921Z,28.40
2023-01-26T03:32:56.154Z,28.40
2023-01-26T03:35:34.229Z,28.40
2023-01-26T03:38:09.552Z,28.40
2023-01-26T03:41:11.425Z,28.30
2023-01-26T03:44:02.380Z,28.30
2023-01-26T18:15:43.062Z,22.80
2023-01-26T18:19:11.384Z,22.90
2023-01-26T18:21:47.844Z,22.80
2023-01-26T18:24:28.328Z,22.80
2023-01-26T18:27:03.300Z,22.90
2023-01-26T18:29:38.340Z,22.80
2023-01-26T18:32:13.911Z,22.80
2023-01-26T18:34:50.384Z,22.80
2023-01-26T18:37:28.642Z,22.70
2023-01-26T18:43:34.458Z,22.70
2023-01-26T18:46:11.194Z,22.70
2023-01-26T18:48:47.146Z,22.60
2023-01-26T18:51:28.044Z,22.60
2023-01-26T18:54:05.795Z,22.60
2023-01-26T18:56:42.259Z,22.60
2023-01-26T18:59:37.614Z,22.70
2023-01-26T19:02:18.816Z,22.70
2023-01-26T19:04:55.470Z,22.70
2023-01-26T19:07:32.681Z,22.70
2023-01-26T19:10:12.382Z,22.70
2023-01-26T19:12:49.664Z,22.70
2023-01-26T19:15:25.379Z,22.70
2023-01-26T19:18:03.842Z,22.70
2023-01-26T19:21:08.647Z,22.70
2023-01-26T19:23:56.899Z,22.70
2023-01-26T19:26:36.483Z,22.80
2023-01-26T19:29:13.950Z,22.80
2023-01-26T19:31:49.046Z,22.80
2023-01-26T19:34:37.839Z,22.80
2023-01-26T19:37:42.577Z,22.80
2023-01-26T19:40:28.189Z,22.90
2023-01-26T19:43:03.444Z,22.90
2023-01-26T19:45:40.092Z,23.00
2023-01-26T19:48:22.551Z,23.10
2023-01-26T20:12:23.109Z,23.40
2023-01-26T20:15:00.613Z,23.50
2023-01-26T20:17:37.273Z,23.60
2023-01-26T21:59:39.489Z,24.40
2023-01-26T22:02:16.349Z,24.30
2023-01-26T22:04:52.226Z,24.30
2023-01-26T22:07:29.666Z,24.20
2023-01-26T22:10:07.799Z,24.20
2023-01-26T22:12:44.142Z,24.20
2023-01-26T22:15:21.905Z,24.20
2023-01-26T22:17:59.997Z,24.20
